<?xml version="1.0" encoding="utf-8"?>
<gpx xmlns:xsi="http://www.w3.org/2001/XMLSchema-instance" xmlns:xsd="http://www.w3.org/2001/XMLSchema" version="1.1" creator="Shapelink.com" xmlns="http://www.topografix.com/GPX/1/1" xmlns:gpxtpx="http://www.garmin.com/xmlschemas/TrackPointExtension/v1">
  <metadata>
    <name>Cykling 14.03 km, 2019-04-14</name>
    <desc></desc>
    <author><name>Marian Moron</name></author> 
    <time>2019-04-14T12:49:57Z</time>
  </metadata>
  <trk>
    <name>Cykling 14.03 km, 2019-04-14</name>
    <trkseg>
      <trkpt lat="51.22889707482" lon="4.448683869634">
        <ele>0</ele>
        <time>2019-04-14T12:49:57Z</time>
      </trkpt>
      <trkpt lat="51.228940157786" lon="4.448558224953">
        <ele>0</ele>
        <time>2019-04-14T12:50:07Z</time>
      </trkpt>
      <trkpt lat="51.228639582852" lon="4.447844003254">
        <ele>0</ele>
        <time>2019-04-14T12:50:33Z</time>
      </trkpt>
      <trkpt lat="51.228410505525" lon="4.447101450733">
        <ele>3.8</ele>
        <time>2019-04-14T12:50:57Z</time>
      </trkpt>
      <trkpt lat="51.22840254272" lon="4.447012267317">
        <ele>4.2</ele>
        <time>2019-04-14T12:51:00Z</time>
      </trkpt>
      <trkpt lat="51.228744356602" lon="4.446313887409">
        <ele>8</ele>
        <time>2019-04-14T12:51:27Z</time>
      </trkpt>
      <trkpt lat="51.229136042789" lon="4.445706367297">
        <ele>6.2</ele>
        <time>2019-04-14T12:51:53Z</time>
      </trkpt>
      <trkpt lat="51.229553042314" lon="4.44513027931">
        <ele>6</ele>
        <time>2019-04-14T12:52:15Z</time>
      </trkpt>
      <trkpt lat="51.229706514903" lon="4.444954343229">
        <ele>1.8</ele>
        <time>2019-04-14T12:52:25Z</time>
      </trkpt>
      <trkpt lat="51.229727218196" lon="4.444956187247">
        <ele>0</ele>
        <time>2019-04-14T12:52:39Z</time>
      </trkpt>
      <trkpt lat="51.229716740821" lon="4.444883935269">
        <ele>0</ele>
        <time>2019-04-14T12:52:44Z</time>
      </trkpt>
      <trkpt lat="51.229699557926" lon="4.444816041879">
        <ele>0</ele>
        <time>2019-04-14T12:52:47Z</time>
      </trkpt>
      <trkpt lat="51.229488250227" lon="4.444022527406">
        <ele>0</ele>
        <time>2019-04-14T12:53:09Z</time>
      </trkpt>
      <trkpt lat="51.229365455392" lon="4.44315718005">
        <ele>0</ele>
        <time>2019-04-14T12:53:32Z</time>
      </trkpt>
      <trkpt lat="51.229283983324" lon="4.442871273441">
        <ele>0</ele>
        <time>2019-04-14T12:53:41Z</time>
      </trkpt>
      <trkpt lat="51.229288593369" lon="4.442854677279">
        <ele>0</ele>
        <time>2019-04-14T12:53:44Z</time>
      </trkpt>
      <trkpt lat="51.229288593369" lon="4.442858449134">
        <ele>0</ele>
        <time>2019-04-14T12:53:49Z</time>
      </trkpt>
      <trkpt lat="51.229324300263" lon="4.442815030892">
        <ele>0</ele>
        <time>2019-04-14T12:53:53Z</time>
      </trkpt>
      <trkpt lat="51.229504594932" lon="4.44271042478">
        <ele>0</ele>
        <time>2019-04-14T12:54:06Z</time>
      </trkpt>
      <trkpt lat="51.229509959348" lon="4.442700031224">
        <ele>0</ele>
        <time>2019-04-14T12:54:52Z</time>
      </trkpt>
      <trkpt lat="51.229528399528" lon="4.442687877469">
        <ele>0</ele>
        <time>2019-04-14T12:54:55Z</time>
      </trkpt>
      <trkpt lat="51.229723697798" lon="4.442602633546">
        <ele>0</ele>
        <time>2019-04-14T12:55:08Z</time>
      </trkpt>
      <trkpt lat="51.229746580385" lon="4.442571369059">
        <ele>0</ele>
        <time>2019-04-14T12:55:37Z</time>
      </trkpt>
      <trkpt lat="51.229771474628" lon="4.44247992253">
        <ele>0</ele>
        <time>2019-04-14T12:55:43Z</time>
      </trkpt>
      <trkpt lat="51.229691176026" lon="4.442408927837">
        <ele>0.6</ele>
        <time>2019-04-14T12:55:50Z</time>
      </trkpt>
      <trkpt lat="51.229658402797" lon="4.442460476522">
        <ele>0</ele>
        <time>2019-04-14T12:57:15Z</time>
      </trkpt>
      <trkpt lat="51.229627222129" lon="4.442465170386">
        <ele>0</ele>
        <time>2019-04-14T12:57:19Z</time>
      </trkpt>
      <trkpt lat="51.229201505428" lon="4.441921939447">
        <ele>6.2</ele>
        <time>2019-04-14T12:57:41Z</time>
      </trkpt>
      <trkpt lat="51.228776626917" lon="4.441342750157">
        <ele>0</ele>
        <time>2019-04-14T12:57:57Z</time>
      </trkpt>
      <trkpt lat="51.228390221327" lon="4.440678736039">
        <ele>0</ele>
        <time>2019-04-14T12:58:15Z</time>
      </trkpt>
      <trkpt lat="51.228131388255" lon="4.440077502352">
        <ele>0</ele>
        <time>2019-04-14T12:58:35Z</time>
      </trkpt>
      <trkpt lat="51.22813683649" lon="4.440069874823">
        <ele>0</ele>
        <time>2019-04-14T12:58:45Z</time>
      </trkpt>
      <trkpt lat="51.228109260039" lon="4.440015476292">
        <ele>0</ele>
        <time>2019-04-14T12:58:50Z</time>
      </trkpt>
      <trkpt lat="51.227932150492" lon="4.439850352862">
        <ele>0</ele>
        <time>2019-04-14T12:59:07Z</time>
      </trkpt>
      <trkpt lat="51.227952350871" lon="4.439913300931">
        <ele>0</ele>
        <time>2019-04-14T13:01:46Z</time>
      </trkpt>
      <trkpt lat="51.22773199072" lon="4.440078843456">
        <ele>0</ele>
        <time>2019-04-14T13:01:57Z</time>
      </trkpt>
      <trkpt lat="51.227362684206" lon="4.439398903728">
        <ele>2.4</ele>
        <time>2019-04-14T13:02:18Z</time>
      </trkpt>
      <trkpt lat="51.227239721733" lon="4.439248951537">
        <ele>4</ele>
        <time>2019-04-14T13:02:24Z</time>
      </trkpt>
      <trkpt lat="51.227194040378" lon="4.439540306381">
        <ele>4.6</ele>
        <time>2019-04-14T13:02:36Z</time>
      </trkpt>
      <trkpt lat="51.22719303455" lon="4.439581629148">
        <ele>4.2</ele>
        <time>2019-04-14T13:02:40Z</time>
      </trkpt>
      <trkpt lat="51.227370144097" lon="4.439023059332">
        <ele>47.6</ele>
        <time>2019-04-14T13:16:42Z</time>
      </trkpt>
      <trkpt lat="51.227324127466" lon="4.439450871508">
        <ele>5.6</ele>
        <time>2019-04-14T13:16:51Z</time>
      </trkpt>
      <trkpt lat="51.227385399155" lon="4.439444668902">
        <ele>6</ele>
        <time>2019-04-14T13:16:54Z</time>
      </trkpt>
      <trkpt lat="51.227752358737" lon="4.440051099367">
        <ele>8</ele>
        <time>2019-04-14T13:17:12Z</time>
      </trkpt>
      <trkpt lat="51.227432170157" lon="4.440675383279">
        <ele>3.6</ele>
        <time>2019-04-14T13:17:28Z</time>
      </trkpt>
      <trkpt lat="51.226987091267" lon="4.44118659536">
        <ele>0</ele>
        <time>2019-04-14T13:17:44Z</time>
      </trkpt>
      <trkpt lat="51.226535725952" lon="4.441723539874">
        <ele>0</ele>
        <time>2019-04-14T13:18:00Z</time>
      </trkpt>
      <trkpt lat="51.226121576273" lon="4.442289737219">
        <ele>0</ele>
        <time>2019-04-14T13:18:17Z</time>
      </trkpt>
      <trkpt lat="51.225715808494" lon="4.442906812697">
        <ele>0</ele>
        <time>2019-04-14T13:18:34Z</time>
      </trkpt>
      <trkpt lat="51.225318422615" lon="4.443567641693">
        <ele>0</ele>
        <time>2019-04-14T13:18:50Z</time>
      </trkpt>
      <trkpt lat="51.225008376134" lon="4.444167785733">
        <ele>0</ele>
        <time>2019-04-14T13:19:03Z</time>
      </trkpt>
      <trkpt lat="51.224634543394" lon="4.44483272186">
        <ele>0</ele>
        <time>2019-04-14T13:19:19Z</time>
      </trkpt>
      <trkpt lat="51.224535553155" lon="4.445013100348">
        <ele>0</ele>
        <time>2019-04-14T13:19:23Z</time>
      </trkpt>
      <trkpt lat="51.224126348797" lon="4.445582147539">
        <ele>0</ele>
        <time>2019-04-14T13:19:36Z</time>
      </trkpt>
      <trkpt lat="51.223701302648" lon="4.44615790025">
        <ele>0</ele>
        <time>2019-04-14T13:19:50Z</time>
      </trkpt>
      <trkpt lat="51.223653106723" lon="4.446213975161">
        <ele>0</ele>
        <time>2019-04-14T13:20:00Z</time>
      </trkpt>
      <trkpt lat="51.223229653135" lon="4.44675636791">
        <ele>0</ele>
        <time>2019-04-14T13:20:16Z</time>
      </trkpt>
      <trkpt lat="51.223159999546" lon="4.446847227706">
        <ele>0</ele>
        <time>2019-04-14T13:20:17Z</time>
      </trkpt>
      <trkpt lat="51.223032091752" lon="4.447030204583">
        <ele>0</ele>
        <time>2019-04-14T13:20:22Z</time>
      </trkpt>
      <trkpt lat="51.222605955956" lon="4.447637137962">
        <ele>0</ele>
        <time>2019-04-14T13:20:38Z</time>
      </trkpt>
      <trkpt lat="51.222184765481" lon="4.448215572881">
        <ele>0.2</ele>
        <time>2019-04-14T13:20:55Z</time>
      </trkpt>
      <trkpt lat="51.221735244184" lon="4.448774561792">
        <ele>0.4</ele>
        <time>2019-04-14T13:21:10Z</time>
      </trkpt>
      <trkpt lat="51.221263929947" lon="4.44910329991">
        <ele>1.8</ele>
        <time>2019-04-14T13:21:27Z</time>
      </trkpt>
      <trkpt lat="51.221259152264" lon="4.449086284653">
        <ele>1.8</ele>
        <time>2019-04-14T13:21:40Z</time>
      </trkpt>
      <trkpt lat="51.221226462854" lon="4.44909994715">
        <ele>2.6</ele>
        <time>2019-04-14T13:21:45Z</time>
      </trkpt>
      <trkpt lat="51.220693960747" lon="4.449227268211">
        <ele>0</ele>
        <time>2019-04-14T13:22:00Z</time>
      </trkpt>
      <trkpt lat="51.220291294271" lon="4.449184939616">
        <ele>0</ele>
        <time>2019-04-14T13:22:11Z</time>
      </trkpt>
      <trkpt lat="51.219767928435" lon="4.448903391595">
        <ele>2.4</ele>
        <time>2019-04-14T13:22:25Z</time>
      </trkpt>
      <trkpt lat="51.219621329004" lon="4.448778417466">
        <ele>3.4</ele>
        <time>2019-04-14T13:22:29Z</time>
      </trkpt>
      <trkpt lat="51.219101064471" lon="4.448372230592">
        <ele>0.6</ele>
        <time>2019-04-14T13:22:43Z</time>
      </trkpt>
      <trkpt lat="51.218614578995" lon="4.447998649309">
        <ele>0</ele>
        <time>2019-04-14T13:22:56Z</time>
      </trkpt>
      <trkpt lat="51.218149299726" lon="4.44746380027">
        <ele>0</ele>
        <time>2019-04-14T13:23:11Z</time>
      </trkpt>
      <trkpt lat="51.217736155875" lon="4.446931884896">
        <ele>0</ele>
        <time>2019-04-14T13:23:26Z</time>
      </trkpt>
      <trkpt lat="51.217181860828" lon="4.446691911099">
        <ele>0</ele>
        <time>2019-04-14T13:23:41Z</time>
      </trkpt>
      <trkpt lat="51.216616836949" lon="4.446567356065">
        <ele>0</ele>
        <time>2019-04-14T13:23:55Z</time>
      </trkpt>
      <trkpt lat="51.216062793359" lon="4.446457301718">
        <ele>0</ele>
        <time>2019-04-14T13:24:09Z</time>
      </trkpt>
      <trkpt lat="51.215912170616" lon="4.446426707783">
        <ele>0</ele>
        <time>2019-04-14T13:24:13Z</time>
      </trkpt>
      <trkpt lat="51.215656019752" lon="4.446338530195">
        <ele>0</ele>
        <time>2019-04-14T13:24:21Z</time>
      </trkpt>
      <trkpt lat="51.215646296748" lon="4.446343559335">
        <ele>0</ele>
        <time>2019-04-14T13:24:23Z</time>
      </trkpt>
      <trkpt lat="51.215640764694" lon="4.446322772223">
        <ele>0</ele>
        <time>2019-04-14T13:25:00Z</time>
      </trkpt>
      <trkpt lat="51.215630622595" lon="4.446313468314">
        <ele>0</ele>
        <time>2019-04-14T13:25:01Z</time>
      </trkpt>
      <trkpt lat="51.215088816579" lon="4.446319251825">
        <ele>0</ele>
        <time>2019-04-14T13:25:21Z</time>
      </trkpt>
      <trkpt lat="51.214550950056" lon="4.446227889115">
        <ele>0</ele>
        <time>2019-04-14T13:25:35Z</time>
      </trkpt>
      <trkpt lat="51.213982657236" lon="4.446085312996">
        <ele>0</ele>
        <time>2019-04-14T13:25:48Z</time>
      </trkpt>
      <trkpt lat="51.213463398531" lon="4.445765878787">
        <ele>0</ele>
        <time>2019-04-14T13:26:07Z</time>
      </trkpt>
      <trkpt lat="51.21294548093" lon="4.445405876182">
        <ele>0.4</ele>
        <time>2019-04-14T13:26:24Z</time>
      </trkpt>
      <trkpt lat="51.212450362097" lon="4.445026930483">
        <ele>0.4</ele>
        <time>2019-04-14T13:26:38Z</time>
      </trkpt>
      <trkpt lat="51.211976868566" lon="4.444592664244">
        <ele>0</ele>
        <time>2019-04-14T13:26:52Z</time>
      </trkpt>
      <trkpt lat="51.211498178257" lon="4.444123780758">
        <ele>0</ele>
        <time>2019-04-14T13:27:06Z</time>
      </trkpt>
      <trkpt lat="51.211028372762" lon="4.443616843446">
        <ele>0</ele>
        <time>2019-04-14T13:27:20Z</time>
      </trkpt>
      <trkpt lat="51.210570972479" lon="4.443075372706">
        <ele>0</ele>
        <time>2019-04-14T13:27:35Z</time>
      </trkpt>
      <trkpt lat="51.210153637678" lon="4.442529962473">
        <ele>0</ele>
        <time>2019-04-14T13:27:49Z</time>
      </trkpt>
      <trkpt lat="51.209734961773" lon="4.441931243356">
        <ele>0</ele>
        <time>2019-04-14T13:28:02Z</time>
      </trkpt>
      <trkpt lat="51.209351992762" lon="4.441260523718">
        <ele>0</ele>
        <time>2019-04-14T13:28:15Z</time>
      </trkpt>
      <trkpt lat="51.209143954004" lon="4.440918877474">
        <ele>0</ele>
        <time>2019-04-14T13:28:22Z</time>
      </trkpt>
      <trkpt lat="51.209015710934" lon="4.440770098749">
        <ele>0</ele>
        <time>2019-04-14T13:28:26Z</time>
      </trkpt>
      <trkpt lat="51.208656378881" lon="4.440094517609">
        <ele>0</ele>
        <time>2019-04-14T13:28:39Z</time>
      </trkpt>
      <trkpt lat="51.20856509999" lon="4.439996197922">
        <ele>0</ele>
        <time>2019-04-14T13:28:47Z</time>
      </trkpt>
      <trkpt lat="51.20851480859" lon="4.440119328033">
        <ele>0</ele>
        <time>2019-04-14T13:28:54Z</time>
      </trkpt>
      <trkpt lat="51.208521681748" lon="4.440128296666">
        <ele>0</ele>
        <time>2019-04-14T13:29:24Z</time>
      </trkpt>
      <trkpt lat="51.208519670092" lon="4.440155789298">
        <ele>0</ele>
        <time>2019-04-14T13:29:28Z</time>
      </trkpt>
      <trkpt lat="51.208479017877" lon="4.44101309003">
        <ele>0</ele>
        <time>2019-04-14T13:29:50Z</time>
      </trkpt>
      <trkpt lat="51.208337615224" lon="4.441860835396">
        <ele>0</ele>
        <time>2019-04-14T13:30:11Z</time>
      </trkpt>
      <trkpt lat="51.208296041" lon="4.442722746173">
        <ele>0</ele>
        <time>2019-04-14T13:30:31Z</time>
      </trkpt>
      <trkpt lat="51.208326048202" lon="4.44359136247">
        <ele>0</ele>
        <time>2019-04-14T13:30:51Z</time>
      </trkpt>
      <trkpt lat="51.208413136143" lon="4.444462493337">
        <ele>0</ele>
        <time>2019-04-14T13:31:09Z</time>
      </trkpt>
      <trkpt lat="51.208546743629" lon="4.445335384403">
        <ele>0</ele>
        <time>2019-04-14T13:31:30Z</time>
      </trkpt>
      <trkpt lat="51.208770372721" lon="4.446142980468">
        <ele>0.2</ele>
        <time>2019-04-14T13:31:45Z</time>
      </trkpt>
      <trkpt lat="51.208852682979" lon="4.446690486176">
        <ele>1.4</ele>
        <time>2019-04-14T13:32:03Z</time>
      </trkpt>
      <trkpt lat="51.208799374095" lon="4.446672045996">
        <ele>6.8</ele>
        <time>2019-04-14T13:32:35Z</time>
      </trkpt>
      <trkpt lat="51.208762242278" lon="4.446705489777">
        <ele>8.2</ele>
        <time>2019-04-14T13:32:40Z</time>
      </trkpt>
      <trkpt lat="51.208613379734" lon="4.446760977955">
        <ele>10.6</ele>
        <time>2019-04-14T13:32:48Z</time>
      </trkpt>
      <trkpt lat="51.208463343724" lon="4.445921865946">
        <ele>6.4</ele>
        <time>2019-04-14T13:33:06Z</time>
      </trkpt>
      <trkpt lat="51.208447082838" lon="4.445897809893">
        <ele>6.4</ele>
        <time>2019-04-14T13:33:07Z</time>
      </trkpt>
      <trkpt lat="51.207944252657" lon="4.446188494185">
        <ele>0</ele>
        <time>2019-04-14T13:33:26Z</time>
      </trkpt>
      <trkpt lat="51.207437650621" lon="4.446535588664">
        <ele>0</ele>
        <time>2019-04-14T13:33:44Z</time>
      </trkpt>
      <trkpt lat="51.206950243136" lon="4.446894082527">
        <ele>2.4</ele>
        <time>2019-04-14T13:33:58Z</time>
      </trkpt>
      <trkpt lat="51.206634077868" lon="4.447498752793">
        <ele>2.8</ele>
        <time>2019-04-14T13:34:14Z</time>
      </trkpt>
      <trkpt lat="51.206489154817" lon="4.448269719955">
        <ele>1</ele>
        <time>2019-04-14T13:34:33Z</time>
      </trkpt>
      <trkpt lat="51.206298215135" lon="4.448823847364">
        <ele>1</ele>
        <time>2019-04-14T13:34:48Z</time>
      </trkpt>
      <trkpt lat="51.20622654989" lon="4.448942032154">
        <ele>0</ele>
        <time>2019-04-14T13:51:37Z</time>
      </trkpt>
      <trkpt lat="51.206318583152" lon="4.449120398986">
        <ele>1.2</ele>
        <time>2019-04-14T13:51:51Z</time>
      </trkpt>
      <trkpt lat="51.206228058632" lon="4.449407730518">
        <ele>0.2</ele>
        <time>2019-04-14T13:52:04Z</time>
      </trkpt>
      <trkpt lat="51.206177012861" lon="4.449574111233">
        <ele>0</ele>
        <time>2019-04-14T13:52:12Z</time>
      </trkpt>
      <trkpt lat="51.206238787464" lon="4.449676705689">
        <ele>0</ele>
        <time>2019-04-14T13:52:17Z</time>
      </trkpt>
      <trkpt lat="51.206786544629" lon="4.449490878966">
        <ele>1.6</ele>
        <time>2019-04-14T13:52:40Z</time>
      </trkpt>
      <trkpt lat="51.207327344817" lon="4.449342686974">
        <ele>6.8</ele>
        <time>2019-04-14T13:52:59Z</time>
      </trkpt>
      <trkpt lat="51.20787862238" lon="4.449180078114">
        <ele>9.8</ele>
        <time>2019-04-14T13:53:16Z</time>
      </trkpt>
      <trkpt lat="51.208408609917" lon="4.449014954684">
        <ele>9.8</ele>
        <time>2019-04-14T13:53:32Z</time>
      </trkpt>
      <trkpt lat="51.208906997691" lon="4.448813202351">
        <ele>6.6</ele>
        <time>2019-04-14T13:53:52Z</time>
      </trkpt>
      <trkpt lat="51.208960558032" lon="4.448813453808">
        <ele>7</ele>
        <time>2019-04-14T13:54:53Z</time>
      </trkpt>
      <trkpt lat="51.208969275208" lon="4.448829295599">
        <ele>7.2</ele>
        <time>2019-04-14T13:54:56Z</time>
      </trkpt>
      <trkpt lat="51.209208326996" lon="4.449643681003">
        <ele>7.8</ele>
        <time>2019-04-14T13:55:17Z</time>
      </trkpt>
      <trkpt lat="51.209740745284" lon="4.450722934447">
        <ele>15.4</ele>
        <time>2019-04-14T13:55:42Z</time>
      </trkpt>
      <trkpt lat="51.210092868903" lon="4.45141502793">
        <ele>25</ele>
        <time>2019-04-14T13:56:00Z</time>
      </trkpt>
      <trkpt lat="51.210369806879" lon="4.452219271235">
        <ele>21.4</ele>
        <time>2019-04-14T13:56:16Z</time>
      </trkpt>
      <trkpt lat="51.210567116805" lon="4.45267231293">
        <ele>15.6</ele>
        <time>2019-04-14T13:56:31Z</time>
      </trkpt>
      <trkpt lat="51.210561417113" lon="4.45267147474">
        <ele>15</ele>
        <time>2019-04-14T13:56:39Z</time>
      </trkpt>
      <trkpt lat="51.210555717421" lon="4.452748001487">
        <ele>14.6</ele>
        <time>2019-04-14T13:56:46Z</time>
      </trkpt>
      <trkpt lat="51.210650349072" lon="4.452853613427">
        <ele>13.2</ele>
        <time>2019-04-14T13:56:55Z</time>
      </trkpt>
      <trkpt lat="51.211060643077" lon="4.453368513544">
        <ele>7.6</ele>
        <time>2019-04-14T13:57:14Z</time>
      </trkpt>
      <trkpt lat="51.211336659044" lon="4.454125482933">
        <ele>5.8</ele>
        <time>2019-04-14T13:57:31Z</time>
      </trkpt>
      <trkpt lat="51.211631282829" lon="4.454884463978">
        <ele>8</ele>
        <time>2019-04-14T13:57:46Z</time>
      </trkpt>
      <trkpt lat="51.211899084534" lon="4.455671440569">
        <ele>4.8</ele>
        <time>2019-04-14T13:58:02Z</time>
      </trkpt>
      <trkpt lat="51.212357825921" lon="4.456209139454">
        <ele>2.4</ele>
        <time>2019-04-14T13:58:16Z</time>
      </trkpt>
      <trkpt lat="51.212835510402" lon="4.456611470654">
        <ele>5.6</ele>
        <time>2019-04-14T13:58:29Z</time>
      </trkpt>
      <trkpt lat="51.213318643118" lon="4.457016819338">
        <ele>9.8</ele>
        <time>2019-04-14T13:58:42Z</time>
      </trkpt>
      <trkpt lat="51.213679567732" lon="4.457631128789">
        <ele>8.8</ele>
        <time>2019-04-14T13:58:58Z</time>
      </trkpt>
      <trkpt lat="51.213894144372" lon="4.458448112582">
        <ele>1.2</ele>
        <time>2019-04-14T13:59:14Z</time>
      </trkpt>
      <trkpt lat="51.213835051977" lon="4.45865866591">
        <ele>0</ele>
        <time>2019-04-14T13:59:21Z</time>
      </trkpt>
      <trkpt lat="51.213855084718" lon="4.458677525185">
        <ele>0</ele>
        <time>2019-04-14T13:59:23Z</time>
      </trkpt>
      <trkpt lat="51.214207627432" lon="4.459360985311">
        <ele>3</ele>
        <time>2019-04-14T13:59:42Z</time>
      </trkpt>
      <trkpt lat="51.214304354558" lon="4.459657034019">
        <ele>2.6</ele>
        <time>2019-04-14T13:59:45Z</time>
      </trkpt>
      <trkpt lat="51.214575676661" lon="4.460432108312">
        <ele>0</ele>
        <time>2019-04-14T13:59:56Z</time>
      </trkpt>
      <trkpt lat="51.214738704616" lon="4.460794290211">
        <ele>0</ele>
        <time>2019-04-14T14:00:03Z</time>
      </trkpt>
      <trkpt lat="51.214804083436" lon="4.460925550765">
        <ele>0</ele>
        <time>2019-04-14T14:00:06Z</time>
      </trkpt>
      <trkpt lat="51.215111447709" lon="4.461670785494">
        <ele>0</ele>
        <time>2019-04-14T14:00:22Z</time>
      </trkpt>
      <trkpt lat="51.215443035673" lon="4.462404034106">
        <ele>0</ele>
        <time>2019-04-14T14:00:38Z</time>
      </trkpt>
      <trkpt lat="51.215566836336" lon="4.462402190088">
        <ele>0</ele>
        <time>2019-04-14T14:00:42Z</time>
      </trkpt>
      <trkpt lat="51.215632215156" lon="4.462303283668">
        <ele>0</ele>
        <time>2019-04-14T14:00:44Z</time>
      </trkpt>
      <trkpt lat="51.215723326409" lon="4.462100441688">
        <ele>0</ele>
        <time>2019-04-14T14:00:53Z</time>
      </trkpt>
      <trkpt lat="51.215742856236" lon="4.462114271823">
        <ele>0</ele>
        <time>2019-04-14T14:01:09Z</time>
      </trkpt>
      <trkpt lat="51.215769175402" lon="4.462070685943">
        <ele>0</ele>
        <time>2019-04-14T14:01:16Z</time>
      </trkpt>
      <trkpt lat="51.216115683148" lon="4.461406336549">
        <ele>0</ele>
        <time>2019-04-14T14:01:33Z</time>
      </trkpt>
      <trkpt lat="51.216462023256" lon="4.460695719067">
        <ele>0</ele>
        <time>2019-04-14T14:01:46Z</time>
      </trkpt>
      <trkpt lat="51.216806519346" lon="4.459969678889">
        <ele>0</ele>
        <time>2019-04-14T14:01:59Z</time>
      </trkpt>
      <trkpt lat="51.217145986296" lon="4.459258726131">
        <ele>0</ele>
        <time>2019-04-14T14:02:12Z</time>
      </trkpt>
      <trkpt lat="51.217482351943" lon="4.45856897958">
        <ele>0</ele>
        <time>2019-04-14T14:02:25Z</time>
      </trkpt>
      <trkpt lat="51.217736323513" lon="4.458030777781">
        <ele>0</ele>
        <time>2019-04-14T14:02:35Z</time>
      </trkpt>
      <trkpt lat="51.218058523749" lon="4.457406326231">
        <ele>0</ele>
        <time>2019-04-14T14:02:48Z</time>
      </trkpt>
      <trkpt lat="51.218089369141" lon="4.457429627913">
        <ele>0</ele>
        <time>2019-04-14T14:02:50Z</time>
      </trkpt>
      <trkpt lat="51.218075790463" lon="4.458308218671">
        <ele>0</ele>
        <time>2019-04-14T14:03:07Z</time>
      </trkpt>
      <trkpt lat="51.217991803825" lon="4.459198292632">
        <ele>0</ele>
        <time>2019-04-14T14:03:27Z</time>
      </trkpt>
      <trkpt lat="51.217996497689" lon="4.46006514873">
        <ele>5</ele>
        <time>2019-04-14T14:03:41Z</time>
      </trkpt>
      <trkpt lat="51.217954420551" lon="4.460949774456">
        <ele>7.4</ele>
        <time>2019-04-14T14:03:54Z</time>
      </trkpt>
      <trkpt lat="51.217845874946" lon="4.461794083243">
        <ele>0.4</ele>
        <time>2019-04-14T14:04:11Z</time>
      </trkpt>
      <trkpt lat="51.217813772269" lon="4.462685079213">
        <ele>0</ele>
        <time>2019-04-14T14:04:26Z</time>
      </trkpt>
      <trkpt lat="51.217775550805" lon="4.463572638604">
        <ele>0</ele>
        <time>2019-04-14T14:04:41Z</time>
      </trkpt>
      <trkpt lat="51.217743364309" lon="4.464459108348">
        <ele>0</ele>
        <time>2019-04-14T14:04:56Z</time>
      </trkpt>
      <trkpt lat="51.217705059026" lon="4.465343398798">
        <ele>0</ele>
        <time>2019-04-14T14:05:09Z</time>
      </trkpt>
      <trkpt lat="51.217674884186" lon="4.46622752161">
        <ele>0</ele>
        <time>2019-04-14T14:05:23Z</time>
      </trkpt>
      <trkpt lat="51.217638842016" lon="4.467091192586">
        <ele>1</ele>
        <time>2019-04-14T14:05:38Z</time>
      </trkpt>
      <trkpt lat="51.217545048555" lon="4.467994677587">
        <ele>1.2</ele>
        <time>2019-04-14T14:05:55Z</time>
      </trkpt>
      <trkpt lat="51.217505318349" lon="4.46841268294">
        <ele>0</ele>
        <time>2019-04-14T14:06:04Z</time>
      </trkpt>
      <trkpt lat="51.217096113991" lon="4.467817819497">
        <ele>0</ele>
        <time>2019-04-14T14:06:19Z</time>
      </trkpt>
      <trkpt lat="51.216695878266" lon="4.467207868634">
        <ele>0</ele>
        <time>2019-04-14T14:06:35Z</time>
      </trkpt>
      <trkpt lat="51.21613982302" lon="4.466362889295">
        <ele>6.4</ele>
        <time>2019-04-14T14:07:00Z</time>
      </trkpt>
      <trkpt lat="51.215670855715" lon="4.466082682378">
        <ele>3.2</ele>
        <time>2019-04-14T14:07:14Z</time>
      </trkpt>
      <trkpt lat="51.215451920487" lon="4.466859768327">
        <ele>0</ele>
        <time>2019-04-14T14:07:32Z</time>
      </trkpt>
      <trkpt lat="51.215431049556" lon="4.466953226512">
        <ele>0</ele>
        <time>2019-04-14T14:07:34Z</time>
      </trkpt>
      <trkpt lat="51.214923357873" lon="4.467098484839">
        <ele>0</ele>
        <time>2019-04-14T14:07:54Z</time>
      </trkpt>
      <trkpt lat="51.214457994785" lon="4.466576711564">
        <ele>0.8</ele>
        <time>2019-04-14T14:08:10Z</time>
      </trkpt>
      <trkpt lat="51.213951225111" lon="4.466242441392">
        <ele>0.6</ele>
        <time>2019-04-14T14:08:23Z</time>
      </trkpt>
      <trkpt lat="51.213512432646" lon="4.466235232958">
        <ele>0</ele>
        <time>2019-04-14T14:08:37Z</time>
      </trkpt>
      <trkpt lat="51.213463314712" lon="4.466055608841">
        <ele>0</ele>
        <time>2019-04-14T14:08:40Z</time>
      </trkpt>
      <trkpt lat="51.213460045771" lon="4.465586473898">
        <ele>0</ele>
        <time>2019-04-14T14:08:48Z</time>
      </trkpt>
      <trkpt lat="51.212928381854" lon="4.465292520665">
        <ele>0</ele>
        <time>2019-04-14T14:09:01Z</time>
      </trkpt>
      <trkpt lat="51.212406105665" lon="4.465388996334">
        <ele>0</ele>
        <time>2019-04-14T14:09:19Z</time>
      </trkpt>
      <trkpt lat="51.212172753569" lon="4.466133979606">
        <ele>0</ele>
        <time>2019-04-14T14:09:37Z</time>
      </trkpt>
      <trkpt lat="51.21229253092" lon="4.466989687777">
        <ele>0</ele>
        <time>2019-04-14T14:09:53Z</time>
      </trkpt>
      <trkpt lat="51.212702741106" lon="4.467536858209">
        <ele>0</ele>
        <time>2019-04-14T14:10:08Z</time>
      </trkpt>
      <trkpt lat="51.212799971146" lon="4.468371108716">
        <ele>0</ele>
        <time>2019-04-14T14:10:25Z</time>
      </trkpt>
      <trkpt lat="51.213164332339" lon="4.469014000446">
        <ele>0</ele>
        <time>2019-04-14T14:10:41Z</time>
      </trkpt>
      <trkpt lat="51.213216383938" lon="4.469873145196">
        <ele>0</ele>
        <time>2019-04-14T14:10:57Z</time>
      </trkpt>
      <trkpt lat="51.21341905828" lon="4.470669425696">
        <ele>0</ele>
        <time>2019-04-14T14:11:12Z</time>
      </trkpt>
      <trkpt lat="51.213410592561" lon="4.471517254881">
        <ele>0</ele>
        <time>2019-04-14T14:11:27Z</time>
      </trkpt>
      <trkpt lat="51.213463147074" lon="4.472322420195">
        <ele>0</ele>
        <time>2019-04-14T14:11:44Z</time>
      </trkpt>
      <trkpt lat="51.213560963847" lon="4.473179301832">
        <ele>0</ele>
        <time>2019-04-14T14:11:59Z</time>
      </trkpt>
      <trkpt lat="51.213613685998" lon="4.473697051795">
        <ele>0</ele>
        <time>2019-04-14T14:12:09Z</time>
      </trkpt>
      <trkpt lat="51.213656182231" lon="4.473721024029">
        <ele>0</ele>
        <time>2019-04-14T14:12:11Z</time>
      </trkpt>
      <trkpt lat="51.213970168205" lon="4.473711133387">
        <ele>0</ele>
        <time>2019-04-14T14:12:23Z</time>
      </trkpt>
      <trkpt lat="51.214093885049" lon="4.47394557513">
        <ele>0</ele>
        <time>2019-04-14T14:12:38Z</time>
      </trkpt>
      <trkpt lat="51.214425808289" lon="4.474585365557">
        <ele>0</ele>
        <time>2019-04-14T14:12:56Z</time>
      </trkpt>
      <trkpt lat="51.214229085096" lon="4.474961712867">
        <ele>0</ele>
        <time>2019-04-14T14:13:05Z</time>
      </trkpt>
      <trkpt lat="51.214106960813" lon="4.475639054206">
        <ele>0</ele>
        <time>2019-04-14T14:13:21Z</time>
      </trkpt>
      <trkpt lat="51.21421533878" lon="4.4764039864">
        <ele>0</ele>
        <time>2019-04-14T14:13:37Z</time>
      </trkpt>
      <trkpt lat="51.214328075335" lon="4.477251145033">
        <ele>0</ele>
        <time>2019-04-14T14:13:52Z</time>
      </trkpt>
      <trkpt lat="51.214349532999" lon="4.478007779146">
        <ele>0</ele>
        <time>2019-04-14T14:14:08Z</time>
      </trkpt>
      <trkpt lat="51.214625968061" lon="4.478439866091">
        <ele>0</ele>
        <time>2019-04-14T14:14:25Z</time>
      </trkpt>
      <trkpt lat="51.215052103857" lon="4.478817722143">
        <ele>0</ele>
        <time>2019-04-14T14:14:39Z</time>
      </trkpt>
      <trkpt lat="51.215440437284" lon="4.478898942754">
        <ele>0</ele>
        <time>2019-04-14T14:14:48Z</time>
      </trkpt>
      <trkpt lat="51.215529369243" lon="4.478864660783">
        <ele>0</ele>
        <time>2019-04-14T14:14:50Z</time>
      </trkpt>
      <trkpt lat="51.215605141619" lon="4.478779668317">
        <ele>0</ele>
        <time>2019-04-14T14:14:52Z</time>
      </trkpt>
      <trkpt lat="51.215947709872" lon="4.478051448845">
        <ele>0</ele>
        <time>2019-04-14T14:15:06Z</time>
      </trkpt>
      <trkpt lat="51.216409468743" lon="4.477652973319">
        <ele>0</ele>
        <time>2019-04-14T14:15:20Z</time>
      </trkpt>
      <trkpt lat="51.216959489021" lon="4.477620451547">
        <ele>0</ele>
        <time>2019-04-14T14:15:35Z</time>
      </trkpt>
      <trkpt lat="51.21728059961" lon="4.477018295851">
        <ele>0</ele>
        <time>2019-04-14T14:15:58Z</time>
      </trkpt>
      <trkpt lat="51.217339692005" lon="4.476112966832">
        <ele>0</ele>
        <time>2019-04-14T14:16:17Z</time>
      </trkpt>
      <trkpt lat="51.21739962259" lon="4.475206631985">
        <ele>0</ele>
        <time>2019-04-14T14:16:35Z</time>
      </trkpt>
      <trkpt lat="51.217408339766" lon="4.475009154421">
        <ele>0</ele>
        <time>2019-04-14T14:16:38Z</time>
      </trkpt>
      <trkpt lat="51.21740884268" lon="4.474122097944">
        <ele>0</ele>
        <time>2019-04-14T14:16:50Z</time>
      </trkpt>
      <trkpt lat="51.217401718065" lon="4.474051773803">
        <ele>0</ele>
        <time>2019-04-14T14:16:51Z</time>
      </trkpt>
      <trkpt lat="51.217461481012" lon="4.473170081742">
        <ele>2.8</ele>
        <time>2019-04-14T14:17:06Z</time>
      </trkpt>
      <trkpt lat="51.217502552322" lon="4.472251928416">
        <ele>4</ele>
        <time>2019-04-14T14:17:20Z</time>
      </trkpt>
      <trkpt lat="51.217567512047" lon="4.47139496296">
        <ele>2</ele>
        <time>2019-04-14T14:17:33Z</time>
      </trkpt>
      <trkpt lat="51.217613193402" lon="4.470479408023">
        <ele>0</ele>
        <time>2019-04-14T14:17:46Z</time>
      </trkpt>
      <trkpt lat="51.217266098923" lon="4.469844227641">
        <ele>0</ele>
        <time>2019-04-14T14:18:00Z</time>
      </trkpt>
      <trkpt lat="51.216770560995" lon="4.469477854792">
        <ele>2.8</ele>
        <time>2019-04-14T14:18:15Z</time>
      </trkpt>
      <trkpt lat="51.216243255666" lon="4.469191696726">
        <ele>5.6</ele>
        <time>2019-04-14T14:18:30Z</time>
      </trkpt>
      <trkpt lat="51.215837906982" lon="4.468657853515">
        <ele>0</ele>
        <time>2019-04-14T14:18:45Z</time>
      </trkpt>
      <trkpt lat="51.215346727642" lon="4.468404636316">
        <ele>0</ele>
        <time>2019-04-14T14:19:00Z</time>
      </trkpt>
      <trkpt lat="51.214833755362" lon="4.468161142121">
        <ele>0</ele>
        <time>2019-04-14T14:19:14Z</time>
      </trkpt>
      <trkpt lat="51.214957639844" lon="4.467355473893">
        <ele>0</ele>
        <time>2019-04-14T14:19:28Z</time>
      </trkpt>
      <trkpt lat="51.215485280449" lon="4.467019862617">
        <ele>0</ele>
        <time>2019-04-14T14:19:50Z</time>
      </trkpt>
      <trkpt lat="51.216018536927" lon="4.466805202158">
        <ele>0.6</ele>
        <time>2019-04-14T14:20:07Z</time>
      </trkpt>
      <trkpt lat="51.216509380991" lon="4.467124552548">
        <ele>1.2</ele>
        <time>2019-04-14T14:20:26Z</time>
      </trkpt>
      <trkpt lat="51.216954208424" lon="4.467622185951">
        <ele>0.8</ele>
        <time>2019-04-14T14:20:41Z</time>
      </trkpt>
      <trkpt lat="51.217394761088" lon="4.46709001912">
        <ele>0</ele>
        <time>2019-04-14T14:20:57Z</time>
      </trkpt>
      <trkpt lat="51.217739508635" lon="4.466553912796">
        <ele>0</ele>
        <time>2019-04-14T14:21:15Z</time>
      </trkpt>
      <trkpt lat="51.217822657083" lon="4.465660234618">
        <ele>0</ele>
        <time>2019-04-14T14:21:32Z</time>
      </trkpt>
      <trkpt lat="51.217867667886" lon="4.46480176042">
        <ele>0</ele>
        <time>2019-04-14T14:21:49Z</time>
      </trkpt>
      <trkpt lat="51.217951738343" lon="4.463928617897">
        <ele>0</ele>
        <time>2019-04-14T14:22:07Z</time>
      </trkpt>
      <trkpt lat="51.217925922091" lon="4.463079447608">
        <ele>0</ele>
        <time>2019-04-14T14:22:21Z</time>
      </trkpt>
      <trkpt lat="51.217922904607" lon="4.462210998949">
        <ele>0</ele>
        <time>2019-04-14T14:22:34Z</time>
      </trkpt>
      <trkpt lat="51.217944278452" lon="4.461345148679">
        <ele>0</ele>
        <time>2019-04-14T14:22:54Z</time>
      </trkpt>
      <trkpt lat="51.218000772458" lon="4.460485333377">
        <ele>0</ele>
        <time>2019-04-14T14:23:13Z</time>
      </trkpt>
      <trkpt lat="51.218077550662" lon="4.459606826438">
        <ele>0</ele>
        <time>2019-04-14T14:23:27Z</time>
      </trkpt>
      <trkpt lat="51.218130272813" lon="4.45869219351">
        <ele>0</ele>
        <time>2019-04-14T14:23:41Z</time>
      </trkpt>
      <trkpt lat="51.21817243377" lon="4.457801029902">
        <ele>0</ele>
        <time>2019-04-14T14:23:55Z</time>
      </trkpt>
      <trkpt lat="51.218220294419" lon="4.456928055017">
        <ele>0</ele>
        <time>2019-04-14T14:24:07Z</time>
      </trkpt>
      <trkpt lat="51.218221803161" lon="4.456053319933">
        <ele>0</ele>
        <time>2019-04-14T14:24:18Z</time>
      </trkpt>
      <trkpt lat="51.21827134019" lon="4.455161485773">
        <ele>0</ele>
        <time>2019-04-14T14:24:32Z</time>
      </trkpt>
      <trkpt lat="51.218312830595" lon="4.454253474546">
        <ele>0</ele>
        <time>2019-04-14T14:24:48Z</time>
      </trkpt>
      <trkpt lat="51.218337724838" lon="4.453315959031">
        <ele>0</ele>
        <time>2019-04-14T14:25:03Z</time>
      </trkpt>
      <trkpt lat="51.218364127823" lon="4.45318360883">
        <ele>0</ele>
        <time>2019-04-14T14:25:05Z</time>
      </trkpt>
      <trkpt lat="51.218411234101" lon="4.45307380594">
        <ele>0</ele>
        <time>2019-04-14T14:25:07Z</time>
      </trkpt>
      <trkpt lat="51.218805434858" lon="4.452613136716">
        <ele>0</ele>
        <time>2019-04-14T14:25:23Z</time>
      </trkpt>
      <trkpt lat="51.218909454237" lon="4.452827126623">
        <ele>0</ele>
        <time>2019-04-14T14:25:28Z</time>
      </trkpt>
      <trkpt lat="51.219067955966" lon="4.453247227451">
        <ele>0</ele>
        <time>2019-04-14T14:25:35Z</time>
      </trkpt>
      <trkpt lat="51.219403818699" lon="4.453917360356">
        <ele>0</ele>
        <time>2019-04-14T14:25:51Z</time>
      </trkpt>
      <trkpt lat="51.21941127859" lon="4.453923060048">
        <ele>0</ele>
        <time>2019-04-14T14:25:53Z</time>
      </trkpt>
      <trkpt lat="51.219414882807" lon="4.453870002621">
        <ele>0.8</ele>
        <time>2019-04-14T14:26:26Z</time>
      </trkpt>
      <trkpt lat="51.21944648257" lon="4.453847790586">
        <ele>2.4</ele>
        <time>2019-04-14T14:26:29Z</time>
      </trkpt>
      <trkpt lat="51.219474897211" lon="4.453735305488">
        <ele>3.2</ele>
        <time>2019-04-14T14:26:34Z</time>
      </trkpt>
      <trkpt lat="51.219197875416" lon="4.452953609494">
        <ele>1</ele>
        <time>2019-04-14T14:26:50Z</time>
      </trkpt>
      <trkpt lat="51.219001571318" lon="4.452398727714">
        <ele>1.8</ele>
        <time>2019-04-14T14:27:02Z</time>
      </trkpt>
      <trkpt lat="51.219125623438" lon="4.452132350932">
        <ele>0.2</ele>
        <time>2019-04-14T14:27:08Z</time>
      </trkpt>
      <trkpt lat="51.219690982593" lon="4.452055991823">
        <ele>0</ele>
        <time>2019-04-14T14:27:25Z</time>
      </trkpt>
      <trkpt lat="51.220236560464" lon="4.451984661854">
        <ele>2.2</ele>
        <time>2019-04-14T14:27:40Z</time>
      </trkpt>
      <trkpt lat="51.220585079866" lon="4.45191375098">
        <ele>0</ele>
        <time>2019-04-14T14:27:47Z</time>
      </trkpt>
      <trkpt lat="51.221141051293" lon="4.451758434373">
        <ele>0</ele>
        <time>2019-04-14T14:28:03Z</time>
      </trkpt>
      <trkpt lat="51.221563163777" lon="4.4516019443">
        <ele>0</ele>
        <time>2019-04-14T14:28:14Z</time>
      </trkpt>
      <trkpt lat="51.222093067495" lon="4.45124738993">
        <ele>0</ele>
        <time>2019-04-14T14:28:25Z</time>
      </trkpt>
      <trkpt lat="51.223192772775" lon="4.451203971688">
        <ele>0</ele>
        <time>2019-04-14T14:28:53Z</time>
      </trkpt>
      <trkpt lat="51.223754192437" lon="4.451373202249">
        <ele>0</ele>
        <time>2019-04-14T14:29:07Z</time>
      </trkpt>
      <trkpt lat="51.223881178222" lon="4.451395162827">
        <ele>0</ele>
        <time>2019-04-14T14:29:10Z</time>
      </trkpt>
      <trkpt lat="51.224352157183" lon="4.450994675645">
        <ele>0</ele>
        <time>2019-04-14T14:29:24Z</time>
      </trkpt>
      <trkpt lat="51.224439328943" lon="4.450866516394">
        <ele>0</ele>
        <time>2019-04-14T14:29:27Z</time>
      </trkpt>
      <trkpt lat="51.224786004327" lon="4.450316244659">
        <ele>0</ele>
        <time>2019-04-14T14:29:39Z</time>
      </trkpt>
      <trkpt lat="51.225218007453" lon="4.449800506352">
        <ele>0</ele>
        <time>2019-04-14T14:29:55Z</time>
      </trkpt>
      <trkpt lat="51.225753610863" lon="4.449667317961">
        <ele>0</ele>
        <time>2019-04-14T14:30:09Z</time>
      </trkpt>
      <trkpt lat="51.225951339884" lon="4.449528346059">
        <ele>0</ele>
        <time>2019-04-14T14:30:14Z</time>
      </trkpt>
      <trkpt lat="51.226017556894" lon="4.449446203439">
        <ele>0</ele>
        <time>2019-04-14T14:30:16Z</time>
      </trkpt>
      <trkpt lat="51.226329531212" lon="4.448674565725">
        <ele>0</ele>
        <time>2019-04-14T14:30:30Z</time>
      </trkpt>
      <trkpt lat="51.226651312353" lon="4.447945508063">
        <ele>0</ele>
        <time>2019-04-14T14:30:46Z</time>
      </trkpt>
      <trkpt lat="51.227071329362" lon="4.447340167245">
        <ele>0</ele>
        <time>2019-04-14T14:31:02Z</time>
      </trkpt>
      <trkpt lat="51.227248187452" lon="4.447067923133">
        <ele>0</ele>
        <time>2019-04-14T14:31:08Z</time>
      </trkpt>
      <trkpt lat="51.227308285675" lon="4.44696759179">
        <ele>0</ele>
        <time>2019-04-14T14:31:10Z</time>
      </trkpt>
      <trkpt lat="51.227727967408" lon="4.446362670067">
        <ele>0</ele>
        <time>2019-04-14T14:31:26Z</time>
      </trkpt>
      <trkpt lat="51.228114792093" lon="4.445760011457">
        <ele>0</ele>
        <time>2019-04-14T14:31:41Z</time>
      </trkpt>
      <trkpt lat="51.228402961815" lon="4.445002203878">
        <ele>0</ele>
        <time>2019-04-14T14:31:56Z</time>
      </trkpt>
      <trkpt lat="51.228634805169" lon="4.444512198004">
        <ele>0</ele>
        <time>2019-04-14T14:32:06Z</time>
      </trkpt>
      <trkpt lat="51.229088852692" lon="4.443978857707">
        <ele>0</ele>
        <time>2019-04-14T14:32:21Z</time>
      </trkpt>
      <trkpt lat="51.229463523622" lon="4.443854889406">
        <ele>0</ele>
        <time>2019-04-14T14:32:32Z</time>
      </trkpt>
      <trkpt lat="51.229703497419" lon="4.44463909997">
        <ele>0</ele>
        <time>2019-04-14T14:32:46Z</time>
      </trkpt>
      <trkpt lat="51.229701234306" lon="4.444845546167">
        <ele>0</ele>
        <time>2019-04-14T14:32:50Z</time>
      </trkpt>
      <trkpt lat="51.229301501495" lon="4.445454491202">
        <ele>0</ele>
        <time>2019-04-14T14:33:08Z</time>
      </trkpt>
      <trkpt lat="51.228880813934" lon="4.446058826192">
        <ele>0</ele>
        <time>2019-04-14T14:33:22Z</time>
      </trkpt>
      <trkpt lat="51.22847211249" lon="4.446646229744">
        <ele>0</ele>
        <time>2019-04-14T14:33:35Z</time>
      </trkpt>
      <trkpt lat="51.228308162526" lon="4.446991815481">
        <ele>0</ele>
        <time>2019-04-14T14:33:50Z</time>
      </trkpt>
      <trkpt lat="51.228362477238" lon="4.447088877883">
        <ele>0</ele>
        <time>2019-04-14T14:33:54Z</time>
      </trkpt>
      <trkpt lat="51.228715941961" lon="4.447750796526">
        <ele>0</ele>
        <time>2019-04-14T14:34:10Z</time>
      </trkpt>
      <trkpt lat="51.229092289271" lon="4.448411290246">
        <ele>0</ele>
        <time>2019-04-14T14:34:29Z</time>
      </trkpt>
      <trkpt lat="51.229128918174" lon="4.448504999888">
        <ele>0</ele>
        <time>2019-04-14T14:34:32Z</time>
      </trkpt>
      <trkpt lat="51.22891802957" lon="4.448698621778">
        <ele>0</ele>
        <time>2019-04-14T14:34:46Z</time>
      </trkpt>
      <trkpt lat="51.228895566078" lon="4.44873784907">
        <ele>0</ele>
        <time>2019-04-14T14:35:09Z</time>
      </trkpt>
      <trkpt lat="51.228847034877" lon="4.448814543455">
        <ele>0</ele>
        <time>2019-04-14T14:35:17Z</time>
      </trkpt>
      <trkpt lat="51.228512680886" lon="4.449248977332">
        <ele>0</ele>
        <time>2019-04-14T14:35:34Z</time>
      </trkpt>
      <trkpt lat="51.228499605122" lon="4.449252078635">
        <ele>0</ele>
        <time>2019-04-14T14:35:36Z</time>
      </trkpt>
      <trkpt lat="51.228498850751" lon="4.44927512886">
        <ele>0</ele>
        <time>2019-04-14T14:35:48Z</time>
      </trkpt>
    </trkseg>
  </trk>
</gpx>